createdAt,value
2022-10-28T00:01:15.665Z,100.00
2022-10-28T00:03:47.147Z,100.00
2022-10-28T00:06:17.152Z,100.00
2022-10-28T00:08:45.289Z,100.00
2022-10-28T00:11:15.855Z,100.00
2022-10-28T00:13:45.573Z,100.00
2022-10-28T00:16:15.918Z,100.00
2022-10-28T00:18:45.778Z,100.00
2022-10-28T00:21:16.465Z,100.00
2022-10-28T00:23:47.660Z,100.00
2022-10-28T00:26:18.027Z,100.00
2022-10-28T00:28:47.771Z,100.00
2022-10-28T00:31:19.476Z,100.00
2022-10-28T00:33:49.235Z,100.00
2022-10-28T00:36:19.255Z,100.00
2022-10-28T00:38:49.853Z,100.00
2022-10-28T00:41:19.800Z,100.00
2022-10-28T00:43:49.645Z,100.00
2022-10-28T00:46:25.209Z,100.00
2022-10-28T00:48:58.360Z,100.00
2022-10-28T00:51:28.417Z,100.00
2022-10-28T00:53:57.537Z,100.00
2022-10-28T00:56:27.960Z,100.00
2022-10-28T00:58:59.334Z,100.00
2022-10-28T01:01:27.421Z,100.00
2022-10-28T01:03:57.919Z,100.00
2022-10-28T01:06:28.251Z,100.00
2022-10-28T01:08:59.183Z,100.00
2022-10-28T01:11:40.555Z,100.00
2022-10-28T01:14:24.678Z,100.00
2022-10-28T01:17:08.669Z,100.00
2022-10-28T01:20:34.931Z,100.00
2022-10-28T01:23:14.074Z,100.00
2022-10-28T01:26:00.467Z,100.00
2022-10-28T01:28:51.820Z,100.00
2022-10-28T01:31:31.159Z,100.00
2022-10-28T01:34:10.846Z,100.00
2022-10-28T01:36:45.057Z,100.00
2022-10-28T01:39:25.653Z,100.00
2022-10-28T01:42:01.495Z,100.00
2022-10-28T01:44:35.475Z,100.00
2022-10-28T01:47:11.089Z,100.00
2022-10-28T01:49:45.189Z,100.00
2022-10-28T01:52:16.213Z,100.00
2022-10-28T01:54:49.692Z,100.00
2022-10-28T01:57:19.908Z,100.00
2022-10-28T01:59:49.716Z,100.00
2022-10-28T02:02:19.736Z,100.00
2022-10-28T02:04:47.764Z,100.00
2022-10-28T02:07:17.613Z,100.00
2022-10-28T02:10:01.345Z,100.00
2022-10-28T02:12:30.994Z,100.00
2022-10-28T02:15:26.271Z,100.00
2022-10-28T02:18:22.335Z,100.00
2022-10-28T02:20:54.675Z,100.00
2022-10-28T02:23:29.888Z,100.00
2022-10-28T02:26:01.825Z,100.00
2022-10-28T02:28:40.713Z,100.00
2022-10-28T02:31:20.814Z,100.00
2022-10-28T02:33:54.510Z,100.00
2022-10-28T02:36:24.623Z,100.00
2022-10-28T02:38:56.371Z,100.00
2022-10-28T02:41:31.264Z,100.00
2022-10-28T02:44:04.182Z,100.00
2022-10-28T02:46:35.278Z,100.00
2022-10-28T02:49:09.425Z,100.00
2022-10-28T02:51:41.962Z,100.00
2022-10-28T02:54:14.271Z,100.00
2022-10-28T02:56:48.095Z,100.00
2022-10-28T02:59:16.240Z,100.00
2022-10-28T03:01:44.233Z,100.00
2022-10-28T03:04:13.779Z,100.00
2022-10-28T03:06:41.894Z,100.00
2022-10-28T03:09:09.853Z,100.00
2022-10-28T03:11:37.811Z,100.00
2022-10-28T03:14:05.931Z,100.00
2022-10-28T03:16:33.950Z,100.00
2022-10-28T03:19:01.906Z,100.00
2022-10-28T03:21:31.307Z,100.00
2022-10-28T03:23:59.380Z,100.00
2022-10-28T03:26:27.343Z,100.00
2022-10-28T03:28:55.364Z,100.00
2022-10-28T03:31:23.637Z,100.00
2022-10-28T03:33:51.550Z,100.00
2022-10-28T03:36:19.547Z,100.00
2022-10-28T03:38:48.963Z,100.00
2022-10-28T03:41:17.089Z,100.00
2022-10-28T03:43:45.305Z,100.00
2022-10-28T03:46:14.259Z,100.00
2022-10-28T03:48:42.306Z,100.00
2022-10-28T03:51:10.489Z,100.00
2022-10-28T03:53:38.494Z,100.00
2022-10-28T03:56:08.605Z,100.00
2022-10-28T03:58:40.923Z,100.00
2022-10-28T04:01:09.520Z,100.00
2022-10-28T04:03:37.579Z,100.00
2022-10-28T04:06:06.015Z,100.00
2022-10-28T04:08:34.253Z,100.00
2022-10-28T04:11:02.320Z,100.00
2022-10-28T04:13:31.884Z,100.00
2022-10-28T04:15:59.907Z,100.00
2022-10-28T04:18:27.813Z,100.00
2022-10-28T04:20:55.940Z,100.00
2022-10-28T04:23:23.855Z,100.00
2022-10-28T04:25:54.475Z,100.00
2022-10-28T04:28:24.314Z,100.00
2022-10-28T04:30:54.214Z,100.00
2022-10-28T04:33:22.940Z,100.00
2022-10-28T04:35:50.869Z,100.00
2022-10-28T04:38:18.981Z,100.00
2022-10-28T04:40:48.447Z,100.00
2022-10-28T04:43:16.478Z,100.00
2022-10-28T04:45:45.424Z,100.00
2022-10-28T04:48:14.679Z,100.00
2022-10-28T04:50:43.314Z,100.00
2022-10-28T04:53:11.224Z,100.00
2022-10-28T04:55:39.174Z,100.00
2022-10-28T04:58:07.336Z,100.00
2022-10-28T05:00:35.225Z,100.00
2022-10-28T05:03:03.975Z,100.00
2022-10-28T05:05:33.309Z,100.00
2022-10-28T05:08:01.956Z,100.00
2022-10-28T05:10:30.429Z,100.00
2022-10-28T05:12:58.468Z,100.00
2022-10-28T05:15:27.498Z,100.00
2022-10-28T05:17:55.792Z,100.00
2022-10-28T05:20:24.353Z,100.00
2022-10-28T05:22:56.030Z,100.00
2022-10-28T05:25:24.575Z,100.00
2022-10-28T05:27:52.699Z,100.00
2022-10-28T05:30:20.986Z,100.00
2022-10-28T05:32:51.599Z,100.00
2022-10-28T05:35:22.437Z,100.00
2022-10-28T05:37:50.397Z,100.00
2022-10-28T05:40:19.728Z,100.00
2022-10-28T05:42:47.676Z,100.00
2022-10-28T05:45:16.242Z,100.00
2022-10-28T05:47:45.277Z,100.00
2022-10-28T05:50:14.223Z,100.00
2022-10-28T05:52:46.100Z,100.00
2022-10-28T05:55:14.051Z,100.00
2022-10-28T05:57:43.408Z,100.00
2022-10-28T06:00:13.197Z,100.00
2022-10-28T06:02:41.679Z,100.00
2022-10-28T06:05:10.401Z,100.00
2022-10-28T06:07:39.177Z,100.00
2022-10-28T06:10:09.062Z,100.00
2022-10-28T06:12:35.595Z,100.00
2022-10-28T06:15:05.863Z,100.00
2022-10-28T06:17:33.839Z,100.00
2022-10-28T06:20:02.366Z,100.00
2022-10-28T06:22:30.519Z,100.00
2022-10-28T06:24:58.374Z,100.00
2022-10-28T06:27:26.404Z,100.00
2022-10-28T06:29:54.480Z,100.00
2022-10-28T06:32:24.239Z,100.00
2022-10-28T06:34:52.082Z,100.00
2022-10-28T06:37:20.070Z,100.00
2022-10-28T06:39:51.257Z,100.00
2022-10-28T06:42:19.469Z,100.00
2022-10-28T06:44:48.142Z,100.00
2022-10-28T06:47:17.649Z,100.00
2022-10-28T06:49:47.208Z,100.00
2022-10-28T06:52:15.274Z,100.00
2022-10-28T06:54:43.667Z,100.00
2022-10-28T06:57:11.670Z,100.00
2022-10-28T06:59:39.732Z,100.00
2022-10-28T07:02:07.916Z,100.00
2022-10-28T07:04:36.066Z,100.00
2022-10-28T07:07:05.430Z,100.00
2022-10-28T07:09:33.895Z,100.00
2022-10-28T07:12:05.068Z,100.00
2022-10-28T07:14:34.823Z,100.00
2022-10-28T07:17:03.134Z,100.00
2022-10-28T07:19:31.046Z,100.00
2022-10-28T07:21:58.965Z,100.00
2022-10-28T07:27:01.215Z,100.00
2022-10-28T07:29:29.263Z,100.00
2022-10-28T07:31:58.096Z,100.00
2022-10-28T07:34:27.443Z,100.00
2022-10-28T07:36:56.795Z,100.00
2022-10-28T07:39:24.985Z,100.00
2022-10-28T07:41:55.917Z,100.00
2022-10-28T07:44:24.220Z,100.00
2022-10-28T07:46:55.611Z,100.00
2022-10-28T07:49:26.177Z,100.00
2022-10-28T07:51:54.438Z,100.00
2022-10-28T07:54:22.387Z,100.00
2022-10-28T07:56:50.482Z,100.00
2022-10-28T07:59:25.814Z,100.00
2022-10-28T08:01:55.543Z,100.00
2022-10-28T08:04:23.639Z,100.00
2022-10-28T08:06:51.600Z,100.00
2022-10-28T08:09:19.877Z,100.00
2022-10-28T08:11:47.805Z,100.00
2022-10-28T08:14:15.886Z,100.00
2022-10-28T08:16:46.632Z,100.00
2022-10-28T08:19:14.669Z,100.00
2022-10-28T08:21:42.606Z,100.00
2022-10-28T08:24:10.772Z,100.00
2022-10-28T08:26:38.794Z,100.00
2022-10-28T08:29:08.149Z,100.00
2022-10-28T08:31:36.138Z,100.00
2022-10-28T08:34:06.203Z,100.00
2022-10-28T08:36:34.509Z,100.00
2022-10-28T08:39:03.189Z,100.00
2022-10-28T08:41:37.115Z,100.00
2022-10-28T08:44:39.155Z,100.00
2022-10-28T08:47:18.429Z,100.00
2022-10-28T08:49:51.701Z,100.00
2022-10-28T08:52:29.073Z,100.00
2022-10-28T08:55:02.510Z,100.00
2022-10-28T08:57:37.952Z,100.00
2022-10-28T09:00:08.456Z,99.60
2022-10-28T09:02:50.108Z,97.41
2022-10-28T09:05:23.426Z,93.14
2022-10-28T09:07:51.846Z,90.59
2022-10-28T09:10:28.838Z,85.97
2022-10-28T09:13:07.415Z,81.85
2022-10-28T09:18:19.189Z,78.81
2022-10-28T09:20:54.180Z,78.26
2022-10-28T09:23:25.121Z,77.19
2022-10-28T09:26:10.126Z,75.55
2022-10-28T09:28:50.377Z,75.84
2022-10-28T09:31:26.923Z,75.81
2022-10-28T09:34:06.718Z,74.09
2022-10-28T09:36:39.191Z,72.89
2022-10-28T09:39:15.575Z,74.12
2022-10-28T09:41:45.102Z,74.08
2022-10-28T09:44:19.063Z,73.77
2022-10-28T09:46:49.776Z,72.69
2022-10-28T09:49:22.114Z,70.50
2022-10-28T09:51:55.655Z,67.93
2022-10-28T09:54:32.183Z,66.80
2022-10-28T09:57:00.330Z,65.48
2022-10-28T09:59:28.350Z,63.99
2022-10-28T10:01:56.433Z,64.25
2022-10-28T10:04:26.395Z,64.13
2022-10-28T10:06:59.008Z,63.50
2022-10-28T10:09:29.722Z,64.66
2022-10-28T10:12:02.368Z,65.37
2022-10-28T10:14:35.337Z,66.51
2022-10-28T10:17:07.265Z,66.55
2022-10-28T10:19:58.974Z,64.15
2022-10-28T10:22:32.886Z,62.32
2022-10-28T10:25:00.916Z,62.27
2022-10-28T10:27:31.736Z,61.12
2022-10-28T10:30:00.601Z,58.80
2022-10-28T10:32:31.864Z,57.49
2022-10-28T10:35:03.852Z,55.63
2022-10-28T10:37:36.189Z,55.74
2022-10-28T10:40:18.457Z,55.32
2022-10-28T10:42:57.563Z,55.71
2022-10-28T10:45:34.698Z,53.68
2022-10-28T10:48:18.425Z,51.11
2022-10-28T10:50:48.995Z,52.39
2022-10-28T10:53:29.165Z,52.76
2022-10-28T10:56:00.742Z,53.52
2022-10-28T10:58:32.272Z,54.05
2022-10-28T11:01:02.596Z,53.86
2022-10-28T11:03:36.832Z,52.73
2022-10-28T11:06:24.581Z,51.06
2022-10-28T11:09:00.714Z,49.99
2022-10-28T11:11:37.289Z,50.40
2022-10-28T11:14:08.763Z,50.67
2022-10-28T11:16:49.317Z,51.24
2022-10-28T11:19:22.294Z,50.70
2022-10-28T11:22:02.318Z,49.69
2022-10-28T11:24:52.407Z,48.56
2022-10-28T11:27:32.916Z,47.39
2022-10-28T11:30:02.342Z,46.54
2022-10-28T11:32:50.200Z,47.28
2022-10-28T11:35:41.041Z,46.39
2022-10-28T11:38:19.511Z,46.99
2022-10-28T11:41:02.668Z,45.48
2022-10-28T11:43:37.189Z,45.68
2022-10-28T11:46:12.425Z,45.08
2022-10-28T11:49:16.437Z,42.96
2022-10-28T11:51:51.471Z,45.03
2022-10-28T11:54:32.700Z,43.82
2022-10-28T11:57:07.850Z,44.18
2022-10-28T12:00:04.991Z,44.10
2022-10-28T12:02:52.410Z,40.08
2022-10-28T12:05:26.250Z,40.81
2022-10-28T12:08:10.355Z,39.31
2022-10-28T12:10:55.759Z,40.40
2022-10-28T12:13:35.069Z,40.74
2022-10-28T12:16:11.960Z,41.27
2022-10-28T12:18:48.475Z,41.13
2022-10-28T12:21:24.469Z,41.19
2022-10-28T12:23:54.592Z,41.12
2022-10-28T12:26:35.494Z,40.89
2022-10-28T12:29:10.243Z,40.19
2022-10-28T12:31:44.638Z,40.25
2022-10-28T12:34:17.370Z,40.13
2022-10-28T12:36:49.834Z,39.31
2022-10-28T12:39:21.869Z,40.37
2022-10-28T12:41:58.127Z,40.88
2022-10-28T12:44:29.597Z,40.27
2022-10-28T12:47:08.465Z,40.31
2022-10-28T12:49:46.291Z,40.50
2022-10-28T12:52:34.475Z,41.11
2022-10-28T12:55:08.595Z,41.63
2022-10-28T12:57:39.628Z,42.30
2022-10-28T13:00:19.172Z,42.21
2022-10-28T13:02:53.726Z,41.49
2022-10-28T13:05:27.437Z,41.25
2022-10-28T13:08:24.598Z,41.06
2022-10-28T13:10:59.389Z,41.15
2022-10-28T13:13:43.239Z,40.20
2022-10-28T13:16:41.302Z,40.08
2022-10-28T13:19:28.414Z,40.08
2022-10-28T13:22:16.813Z,40.39
2022-10-28T13:24:55.787Z,40.26
2022-10-28T13:27:24.270Z,40.31
2022-10-28T13:29:55.939Z,40.27
2022-10-28T13:32:38.813Z,40.60
2022-10-28T13:35:16.430Z,40.68
2022-10-28T13:37:48.676Z,40.02
2022-10-28T13:40:44.370Z,40.79
2022-10-28T13:43:21.044Z,40.32
2022-10-28T13:45:52.384Z,39.88
2022-10-28T13:48:46.468Z,39.97
2022-10-28T13:51:34.448Z,40.28
2022-10-28T13:54:03.027Z,40.15
2022-10-28T13:56:51.036Z,40.45
2022-10-28T13:59:27.822Z,40.15
2022-10-28T14:02:32.513Z,39.85
2022-10-28T14:05:00.867Z,38.65
2022-10-28T14:07:31.477Z,38.86
2022-10-28T14:10:19.257Z,39.40
2022-10-28T14:12:51.304Z,39.73
2022-10-28T14:15:25.829Z,39.42
2022-10-28T14:18:05.145Z,39.86
2022-10-28T14:21:00.882Z,40.38
2022-10-28T14:24:16.848Z,39.80
2022-10-28T14:27:24.615Z,39.70
2022-10-28T14:30:16.759Z,39.82
2022-10-28T14:32:52.367Z,39.95
2022-10-28T14:35:26.556Z,40.07
2022-10-28T14:38:31.622Z,40.48
2022-10-28T14:41:26.755Z,40.57
2022-10-28T14:44:09.454Z,40.88
2022-10-28T14:46:48.172Z,41.71
2022-10-28T14:49:21.563Z,41.55
2022-10-28T14:51:51.412Z,41.77
2022-10-28T14:54:40.593Z,42.08
2022-10-28T14:57:09.523Z,41.59
2022-10-28T14:59:39.290Z,42.23
2022-10-28T15:02:13.890Z,42.24
2022-10-28T15:04:44.406Z,42.15
2022-10-28T15:07:17.455Z,42.60
2022-10-28T15:09:53.445Z,42.97
2022-10-28T15:12:23.738Z,43.05
2022-10-28T15:14:53.747Z,43.10
2022-10-28T15:17:24.443Z,43.04
2022-10-28T15:19:53.780Z,43.11
2022-10-28T15:22:24.100Z,43.10
2022-10-28T15:24:58.583Z,43.18
2022-10-28T15:27:30.797Z,43.14
2022-10-28T15:29:58.788Z,43.56
2022-10-28T15:32:30.034Z,43.69
2022-10-28T15:34:58.012Z,43.73
2022-10-28T15:37:28.785Z,44.07
2022-10-28T15:42:58.939Z,45.32
2022-10-28T15:45:29.390Z,46.00
2022-10-28T15:47:59.535Z,47.04
2022-10-28T15:50:31.316Z,47.20
2022-10-28T15:53:39.543Z,46.14
2022-10-28T15:56:21.451Z,46.48
2022-10-28T15:59:04.343Z,47.22
2022-10-28T16:01:39.696Z,47.95
2022-10-28T16:04:28.789Z,47.99
2022-10-28T16:06:59.246Z,48.91
2022-10-28T16:09:32.401Z,48.41
2022-10-28T16:12:03.808Z,48.34
2022-10-28T16:14:38.120Z,49.37
2022-10-28T16:17:15.989Z,50.48
2022-10-28T16:19:47.989Z,51.99
2022-10-28T16:22:18.532Z,53.17
2022-10-28T16:24:47.311Z,54.06
2022-10-28T16:27:21.478Z,54.47
2022-10-28T16:29:50.211Z,54.53
2022-10-28T16:32:21.862Z,53.63
2022-10-28T16:34:49.818Z,52.82
2022-10-28T16:37:23.210Z,54.26
2022-10-28T16:39:51.822Z,54.66
2022-10-28T16:42:21.794Z,54.96
2022-10-28T16:44:50.877Z,55.97
2022-10-28T16:47:25.749Z,56.42
2022-10-28T16:49:57.453Z,57.21
2022-10-28T16:52:30.158Z,57.07
2022-10-28T16:54:59.762Z,57.25
2022-10-28T16:57:28.562Z,58.24
2022-10-28T16:59:56.738Z,57.83
2022-10-28T17:02:29.252Z,58.36
2022-10-28T17:04:58.317Z,58.99
2022-10-28T17:07:30.302Z,58.97
2022-10-28T17:09:58.613Z,59.99
2022-10-28T17:12:28.492Z,60.07
2022-10-28T17:14:57.011Z,60.08
2022-10-28T17:17:26.472Z,59.42
2022-10-28T17:19:54.850Z,58.65
2022-10-28T17:22:23.439Z,57.82
2022-10-28T17:24:52.805Z,57.37
2022-10-28T17:27:21.132Z,56.51
2022-10-28T17:29:50.856Z,56.83
2022-10-28T17:32:19.481Z,56.71
2022-10-28T17:34:47.785Z,57.77
2022-10-28T17:37:15.839Z,58.76
2022-10-28T17:39:43.947Z,59.61
2022-10-28T17:42:13.549Z,60.37
2022-10-28T17:44:41.945Z,60.74
2022-10-28T17:47:12.236Z,60.75
2022-10-28T17:49:40.339Z,61.53
2022-10-28T17:52:08.344Z,62.21
2022-10-28T17:54:37.649Z,61.52
2022-10-28T17:57:06.174Z,61.75
2022-10-28T17:59:35.791Z,61.35
2022-10-28T18:02:04.034Z,62.00
2022-10-28T18:04:33.572Z,62.44
2022-10-28T18:07:01.620Z,63.08
2022-10-28T18:09:31.853Z,63.30
2022-10-28T18:12:02.121Z,63.59
2022-10-28T18:14:30.881Z,64.09
2022-10-28T18:17:00.411Z,64.34
2022-10-28T18:19:28.820Z,64.37
2022-10-28T18:21:58.021Z,64.90
2022-10-28T18:24:26.392Z,65.34
2022-10-28T18:26:57.263Z,65.10
2022-10-28T18:29:25.485Z,65.30
2022-10-28T18:31:53.776Z,64.76
2022-10-28T18:34:23.948Z,65.28
2022-10-28T18:36:51.944Z,66.25
2022-10-28T18:39:20.235Z,66.81
2022-10-28T18:41:48.770Z,67.46
2022-10-28T18:44:20.175Z,67.92
2022-10-28T18:46:48.539Z,68.27
2022-10-28T18:49:17.011Z,68.22
2022-10-28T18:51:46.483Z,68.57
2022-10-28T18:54:14.530Z,68.91
2022-10-28T18:56:47.585Z,69.49
2022-10-28T18:59:16.947Z,69.40
2022-10-28T19:01:47.225Z,70.42
2022-10-28T19:04:15.674Z,71.19
2022-10-28T19:06:43.739Z,71.37
2022-10-28T19:09:13.201Z,71.44
2022-10-28T19:11:41.275Z,71.77
2022-10-28T19:14:10.894Z,72.27
2022-10-28T19:16:38.993Z,72.41
2022-10-28T19:19:07.239Z,72.00
2022-10-28T19:21:35.614Z,72.12
2022-10-28T19:24:07.706Z,72.46
2022-10-28T19:26:37.334Z,73.30
2022-10-28T19:29:06.797Z,74.16
2022-10-28T19:31:39.318Z,75.02
2022-10-28T19:34:07.301Z,74.73
2022-10-28T19:36:35.923Z,75.40
2022-10-28T19:39:05.010Z,75.87
2022-10-28T19:41:33.765Z,76.07
2022-10-28T19:44:04.715Z,75.39
2022-10-28T19:46:35.261Z,75.71
2022-10-28T19:49:05.311Z,76.33
2022-10-28T19:51:36.967Z,77.33
2022-10-28T19:54:08.344Z,78.36
2022-10-28T19:56:37.444Z,78.80
2022-10-28T19:59:08.585Z,78.56
2022-10-28T20:01:39.143Z,79.00
2022-10-28T20:04:08.656Z,78.49
2022-10-28T20:06:40.250Z,80.28
2022-10-28T20:09:11.553Z,82.13
2022-10-28T20:11:41.048Z,84.00
2022-10-28T20:14:14.674Z,86.67
2022-10-28T20:16:46.469Z,89.08
2022-10-28T20:19:14.846Z,90.93
2022-10-28T20:21:45.415Z,92.20
2022-10-28T20:24:13.995Z,95.13
2022-10-28T20:26:42.314Z,96.24
2022-10-28T20:29:11.801Z,97.09
2022-10-28T20:31:40.043Z,97.80
2022-10-28T20:34:09.110Z,96.52
2022-10-28T20:36:39.023Z,95.57
2022-10-28T20:39:10.294Z,95.04
2022-10-28T20:41:40.667Z,94.71
2022-10-28T20:44:09.290Z,94.54
2022-10-28T20:46:40.058Z,93.86
2022-10-28T20:49:10.068Z,94.67
2022-10-28T20:51:38.861Z,95.55
2022-10-28T20:54:07.926Z,94.92
2022-10-28T20:56:38.167Z,95.25
2022-10-28T20:59:07.616Z,95.85
2022-10-28T21:01:37.571Z,96.04
2022-10-28T21:04:08.752Z,96.48
2022-10-28T21:06:39.851Z,97.32
2022-10-28T21:09:09.139Z,97.07
2022-10-28T21:11:37.363Z,96.77
2022-10-28T21:14:05.372Z,96.58
2022-10-28T21:16:34.061Z,96.54
2022-10-28T21:19:02.322Z,96.57
2022-10-28T21:21:31.904Z,96.41
2022-10-28T21:24:00.162Z,96.91
2022-10-28T21:26:28.385Z,97.93
2022-10-28T21:28:56.645Z,98.87
2022-10-28T21:31:25.045Z,98.83
2022-10-28T21:33:54.570Z,99.13
2022-10-28T21:36:23.223Z,99.33
2022-10-28T21:38:56.498Z,98.46
2022-10-28T21:41:27.075Z,98.19
2022-10-28T21:43:55.617Z,99.10
2022-10-28T21:46:25.071Z,99.84
2022-10-28T21:48:54.623Z,100.00
2022-10-28T21:51:23.798Z,100.00
2022-10-28T21:53:52.639Z,100.00
2022-10-28T21:56:22.542Z,100.00
2022-10-28T21:58:52.125Z,100.00
2022-10-28T22:01:21.829Z,100.00
2022-10-28T22:03:50.268Z,100.00
2022-10-28T22:06:18.904Z,100.00
2022-10-28T22:08:48.475Z,100.00
2022-10-28T22:11:19.297Z,100.00
2022-10-28T22:13:49.576Z,100.00
2022-10-28T22:16:19.400Z,100.00
2022-10-28T22:18:48.112Z,100.00
2022-10-28T22:21:19.580Z,100.00
2022-10-28T22:23:48.764Z,100.00
2022-10-28T22:26:19.694Z,100.00
2022-10-28T22:28:49.281Z,100.00
2022-10-28T22:31:19.724Z,100.00
2022-10-28T22:33:48.323Z,100.00
2022-10-28T22:36:18.560Z,100.00
2022-10-28T22:38:47.574Z,100.00
2022-10-28T22:41:18.946Z,100.00
2022-10-28T22:43:51.354Z,100.00
2022-10-28T22:46:19.787Z,100.00
2022-10-28T22:48:49.603Z,100.00
2022-10-28T22:51:20.473Z,100.00
2022-10-28T22:53:51.667Z,100.00
2022-10-28T22:56:22.513Z,100.00
2022-10-28T22:58:57.328Z,100.00
2022-10-28T23:01:26.913Z,100.00
2022-10-28T23:03:57.240Z,100.00
2022-10-28T23:06:28.343Z,100.00
2022-10-28T23:08:56.862Z,100.00
2022-10-28T23:11:25.284Z,100.00
2022-10-28T23:13:56.336Z,100.00
2022-10-28T23:16:25.777Z,100.00
2022-10-28T23:18:54.133Z,100.00
2022-10-28T23:21:24.126Z,100.00
2022-10-28T23:23:54.576Z,100.00
2022-10-28T23:26:23.728Z,100.00
2022-10-28T23:28:53.229Z,100.00
2022-10-28T23:31:23.777Z,100.00
2022-10-28T23:33:53.975Z,100.00
2022-10-28T23:36:22.483Z,100.00
2022-10-28T23:38:50.744Z,100.00
2022-10-28T23:41:21.152Z,100.00
2022-10-28T23:43:49.874Z,100.00
2022-10-28T23:46:18.477Z,100.00
2022-10-28T23:48:48.522Z,100.00
2022-10-28T23:51:16.967Z,100.00
2022-10-28T23:53:44.985Z,100.00
2022-10-28T23:56:13.297Z,100.00
2022-10-28T23:58:42.778Z,100.00
